sensor_id;sensor_type;location;lat;lon;timestamp;pressure;altitude;pressure_sealevel;temperature;humidity
40946;BME280;55635;50.264;11.918;2024-01-30T00:02:21;97034.16;;;5.03;62.27
40946;BME280;55635;50.264;11.918;2024-01-30T00:05:02;97039.00;;;4.74;63.27
40946;BME280;55635;50.264;11.918;2024-01-30T00:07:44;97047.22;;;4.80;63.52
40946;BME280;55635;50.264;11.918;2024-01-30T00:10:25;97052.91;;;4.98;63.34
40946;BME280;55635;50.264;11.918;2024-01-30T00:13:06;97050.06;;;5.01;62.42
40946;BME280;55635;50.264;11.918;2024-01-30T00:15:47;97034.78;;;5.06;62.01
40946;BME280;55635;50.264;11.918;2024-01-30T00:18:29;97054.09;;;5.05;62.29
40946;BME280;55635;50.264;11.918;2024-01-30T00:21:10;97052.56;;;5.14;62.22
40946;BME280;55635;50.264;11.918;2024-01-30T00:23:51;97055.94;;;5.16;62.08
40946;BME280;55635;50.264;11.918;2024-01-30T00:26:32;97058.81;;;5.24;61.61
40946;BME280;55635;50.264;11.918;2024-01-30T00:29:13;97039.91;;;5.08;62.17
40946;BME280;55635;50.264;11.918;2024-01-30T00:32:00;97054.50;;;5.12;62.09
40946;BME280;55635;50.264;11.918;2024-01-30T00:34:42;97043.28;;;5.21;61.95
40946;BME280;55635;50.264;11.918;2024-01-30T00:37:23;97034.78;;;5.06;62.41
40946;BME280;55635;50.264;11.918;2024-01-30T00:40:05;97038.75;;;4.77;63.31
40946;BME280;55635;50.264;11.918;2024-01-30T00:42:47;97051.31;;;4.84;63.27
40946;BME280;55635;50.264;11.918;2024-01-30T00:45:28;97047.69;;;4.74;64.08
40946;BME280;55635;50.264;11.918;2024-01-30T00:48:09;97050.22;;;4.76;64.05
40946;BME280;55635;50.264;11.918;2024-01-30T00:50:50;97049.59;;;4.72;63.72
40946;BME280;55635;50.264;11.918;2024-01-30T00:53:32;97055.09;;;4.80;63.77
40946;BME280;55635;50.264;11.918;2024-01-30T00:56:13;97043.41;;;4.73;63.81
40946;BME280;55635;50.264;11.918;2024-01-30T00:58:54;97052.06;;;4.98;63.16
40946;BME280;55635;50.264;11.918;2024-01-30T01:01:36;97034.16;;;4.91;62.61
40946;BME280;55635;50.264;11.918;2024-01-30T01:04:17;97039.91;;;5.08;62.56
40946;BME280;55635;50.264;11.918;2024-01-30T01:06:58;97032.47;;;4.90;62.80
40946;BME280;55635;50.264;11.918;2024-01-30T01:09:40;97041.03;;;4.81;62.98
40946;BME280;55635;50.264;11.918;2024-01-30T01:12:21;97040.47;;;4.89;62.82
40946;BME280;55635;50.264;11.918;2024-01-30T01:15:02;97037.84;;;4.89;62.98
40946;BME280;55635;50.264;11.918;2024-01-30T01:17:44;97029.44;;;4.73;63.18
40946;BME280;55635;50.264;11.918;2024-01-30T01:20:25;97020.13;;;4.45;64.11
40946;BME280;55635;50.264;11.918;2024-01-30T01:23:06;97034.13;;;4.22;65.00
40946;BME280;55635;50.264;11.918;2024-01-30T01:25:47;97021.75;;;4.35;64.67
40946;BME280;55635;50.264;11.918;2024-01-30T01:28:28;97036.81;;;4.44;64.37
40946;BME280;55635;50.264;11.918;2024-01-30T01:31:09;97027.22;;;4.32;64.69
40946;BME280;55635;50.264;11.918;2024-01-30T01:33:50;97032.53;;;4.19;65.44
40946;BME280;55635;50.264;11.918;2024-01-30T01:36:31;97034.22;;;4.20;65.47
40946;BME280;55635;50.264;11.918;2024-01-30T01:39:12;97034.03;;;4.11;65.49
40946;BME280;55635;50.264;11.918;2024-01-30T01:41:53;97008.81;;;4.21;64.58
40946;BME280;55635;50.264;11.918;2024-01-30T01:44:34;97024.66;;;4.43;63.94
40946;BME280;55635;50.264;11.918;2024-01-30T01:47:16;97020.63;;;4.50;63.69
40946;BME280;55635;50.264;11.918;2024-01-30T01:49:57;97022.78;;;4.56;63.33
40946;BME280;55635;50.264;11.918;2024-01-30T01:52:40;97002.53;;;4.34;63.83
40946;BME280;55635;50.264;11.918;2024-01-30T01:55:22;97019.34;;;4.32;64.08
40946;BME280;55635;50.264;11.918;2024-01-30T01:58:05;96998.56;;;4.29;64.22
40946;BME280;55635;50.264;11.918;2024-01-30T02:00:47;97020.19;;;4.09;65.33
40946;BME280;55635;50.264;11.918;2024-01-30T02:03:28;97021.00;;;3.85;66.27
40946;BME280;55635;50.264;11.918;2024-01-30T02:06:09;97019.00;;;4.13;65.32
40946;BME280;55635;50.264;11.918;2024-01-30T02:08:51;97019.97;;;4.12;65.43
40946;BME280;55635;50.264;11.918;2024-01-30T02:11:32;97021.03;;;4.09;65.46
40946;BME280;55635;50.264;11.918;2024-01-30T02:14:13;97020.84;;;4.00;65.94
40946;BME280;55635;50.264;11.918;2024-01-30T02:16:55;97014.38;;;3.93;66.42
40946;BME280;55635;50.264;11.918;2024-01-30T02:19:35;97020.84;;;4.00;66.43
40946;BME280;55635;50.264;11.918;2024-01-30T02:22:20;97012.91;;;4.25;65.37
40946;BME280;55635;50.264;11.918;2024-01-30T02:25:01;97014.84;;;4.34;64.80
40946;BME280;55635;50.264;11.918;2024-01-30T02:27:42;97014.94;;;4.09;65.26
40946;BME280;55635;50.264;11.918;2024-01-30T02:30:23;97018.50;;;4.08;65.65
40946;BME280;55635;50.264;11.918;2024-01-30T02:33:04;97011.31;;;3.99;65.74
40946;BME280;55635;50.264;11.918;2024-01-30T02:35:45;97010.41;;;3.87;66.82
40946;BME280;55635;50.264;11.918;2024-01-30T02:38:27;97016.06;;;3.94;66.97
40946;BME280;55635;50.264;11.918;2024-01-30T02:41:08;97018.72;;;4.05;66.92
40946;BME280;55635;50.264;11.918;2024-01-30T02:43:49;97012.25;;;3.98;66.69
40946;BME280;55635;50.264;11.918;2024-01-30T02:46:30;97008.28;;;3.92;67.48
40946;BME280;55635;50.264;11.918;2024-01-30T02:49:12;96998.34;;;3.84;67.26
40946;BME280;55635;50.264;11.918;2024-01-30T02:51:53;97018.38;;;3.85;67.74
40946;BME280;55635;50.264;11.918;2024-01-30T02:54:34;96999.72;;;3.28;69.13
40946;BME280;55635;50.264;11.918;2024-01-30T02:57:16;97008.72;;;3.37;69.43
40946;BME280;55635;50.264;11.918;2024-01-30T02:59:57;97006.31;;;3.21;70.19
40946;BME280;55635;50.264;11.918;2024-01-30T03:02:38;97009.16;;;3.06;71.66
40946;BME280;55635;50.264;11.918;2024-01-30T03:05:20;97014.94;;;3.11;71.53
40946;BME280;55635;50.264;11.918;2024-01-30T03:08:02;97008.84;;;3.23;70.61
40946;BME280;55635;50.264;11.918;2024-01-30T03:10:44;97009.06;;;3.33;69.76
40946;BME280;55635;50.264;11.918;2024-01-30T03:13:26;97011.47;;;2.98;71.19
40946;BME280;55635;50.264;11.918;2024-01-30T03:16:08;96994.41;;;2.92;70.97
40946;BME280;55635;50.264;11.918;2024-01-30T03:18:49;97014.59;;;3.03;71.07
40946;BME280;55635;50.264;11.918;2024-01-30T03:21:30;97004.47;;;3.23;70.49
40946;BME280;55635;50.264;11.918;2024-01-30T03:24:11;97006.75;;;3.03;71.63
40946;BME280;55635;50.264;11.918;2024-01-30T03:26:53;97004.47;;;3.11;71.37
40946;BME280;55635;50.264;11.918;2024-01-30T03:29:34;96998.16;;;2.88;71.39
40946;BME280;55635;50.264;11.918;2024-01-30T03:32:16;96995.25;;;2.93;71.91
40946;BME280;55635;50.264;11.918;2024-01-30T03:34:56;96997.09;;;3.16;71.07
40946;BME280;55635;50.264;11.918;2024-01-30T03:37:39;96997.31;;;3.00;71.49
40946;BME280;55635;50.264;11.918;2024-01-30T03:40:20;96996.47;;;3.12;70.78
40946;BME280;55635;50.264;11.918;2024-01-30T03:43:01;96986.97;;;3.24;70.41
40946;BME280;55635;50.264;11.918;2024-01-30T03:45:43;96985.16;;;3.24;70.32
40946;BME280;55635;50.264;11.918;2024-01-30T03:48:24;96986.84;;;3.13;70.54
40946;BME280;55635;50.264;11.918;2024-01-30T03:51:06;96981.59;;;3.00;70.22
40946;BME280;55635;50.264;11.918;2024-01-30T03:53:48;96974.88;;;3.21;70.13
40946;BME280;55635;50.264;11.918;2024-01-30T03:56:29;96982.31;;;3.27;70.16
40946;BME280;55635;50.264;11.918;2024-01-30T03:59:10;96966.94;;;2.98;70.75
40946;BME280;55635;50.264;11.918;2024-01-30T04:01:51;96982.63;;;3.36;70.54
40946;BME280;55635;50.264;11.918;2024-01-30T04:04:32;96967.00;;;3.34;69.96
40946;BME280;55635;50.264;11.918;2024-01-30T04:07:13;96971.03;;;3.14;70.23
40946;BME280;55635;50.264;11.918;2024-01-30T04:09:54;96961.06;;;3.19;70.26
40946;BME280;55635;50.264;11.918;2024-01-30T04:12:35;96977.84;;;3.66;68.23
40946;BME280;55635;50.264;11.918;2024-01-30T04:15:16;96963.59;;;3.57;68.05
40946;BME280;55635;50.264;11.918;2024-01-30T04:17:58;96958.19;;;3.35;69.09
40946;BME280;55635;50.264;11.918;2024-01-30T04:20:40;96968.78;;;3.34;69.52
40946;BME280;55635;50.264;11.918;2024-01-30T04:23:22;96974.44;;;3.40;69.08
40946;BME280;55635;50.264;11.918;2024-01-30T04:26:03;96958.84;;;3.39;69.56
40946;BME280;55635;50.264;11.918;2024-01-30T04:28:47;96967.38;;;3.53;68.46
40946;BME280;55635;50.264;11.918;2024-01-30T04:31:28;96974.44;;;3.40;68.96
40946;BME280;55635;50.264;11.918;2024-01-30T04:34:08;96961.03;;;3.32;69.61
40946;BME280;55635;50.264;11.918;2024-01-30T04:36:50;96969.22;;;3.27;69.83
40946;BME280;55635;50.264;11.918;2024-01-30T04:39:33;96977.28;;;3.37;70.13
40946;BME280;55635;50.264;11.918;2024-01-30T04:42:14;96969.56;;;3.23;69.95
40946;BME280;55635;50.264;11.918;2024-01-30T04:44:55;96964.72;;;3.17;70.69
40946;BME280;55635;50.264;11.918;2024-01-30T04:47:36;96960.00;;;3.09;70.32
40946;BME280;55635;50.264;11.918;2024-01-30T04:50:17;96965.16;;;3.23;70.24
40946;BME280;55635;50.264;11.918;2024-01-30T04:52:58;96975.44;;;2.89;72.29
40946;BME280;55635;50.264;11.918;2024-01-30T04:55:39;96973.88;;;3.11;70.79
40946;BME280;55635;50.264;11.918;2024-01-30T04:58:20;96979.53;;;3.05;70.20
40946;BME280;55635;50.264;11.918;2024-01-30T05:01:02;96977.13;;;3.02;70.72
40946;BME280;55635;50.264;11.918;2024-01-30T05:03:44;96991.44;;;3.09;70.88
40946;BME280;55635;50.264;11.918;2024-01-30T05:06:28;96972.31;;;2.96;71.68
40946;BME280;55635;50.264;11.918;2024-01-30T05:09:09;96987.06;;;2.97;71.93
40946;BME280;55635;50.264;11.918;2024-01-30T05:11:50;96981.59;;;2.88;71.91
40946;BME280;55635;50.264;11.918;2024-01-30T05:14:31;96984.56;;;2.96;71.55
40946;BME280;55635;50.264;11.918;2024-01-30T05:17:12;96975.00;;;2.95;71.07
40946;BME280;55635;50.264;11.918;2024-01-30T05:19:53;96978.25;;;2.86;72.82
40946;BME280;55635;50.264;11.918;2024-01-30T05:22:34;96984.63;;;2.82;73.69
40946;BME280;55635;50.264;11.918;2024-01-30T05:25:15;96990.63;;;2.84;74.17
40946;BME280;55635;50.264;11.918;2024-01-30T05:27:57;96997.31;;;2.88;73.82
40946;BME280;55635;50.264;11.918;2024-01-30T05:30:38;96988.94;;;3.08;72.34
40946;BME280;55635;50.264;11.918;2024-01-30T05:33:19;96988.41;;;3.15;72.15
40946;BME280;55635;50.264;11.918;2024-01-30T05:36:01;96990.84;;;2.81;74.55
40946;BME280;55635;50.264;11.918;2024-01-30T05:38:42;96994.38;;;2.67;75.17
40946;BME280;55635;50.264;11.918;2024-01-30T05:41:23;96994.50;;;2.65;75.12
40946;BME280;55635;50.264;11.918;2024-01-30T05:44:04;96993.88;;;2.74;75.01
40946;BME280;55635;50.264;11.918;2024-01-30T05:46:46;96996.91;;;2.68;75.37
40946;BME280;55635;50.264;11.918;2024-01-30T05:49:27;97007.03;;;2.60;75.92
40946;BME280;55635;50.264;11.918;2024-01-30T05:52:08;97000.13;;;2.59;75.20
40946;BME280;55635;50.264;11.918;2024-01-30T05:54:50;97011.59;;;2.96;74.16
40946;BME280;55635;50.264;11.918;2024-01-30T05:57:32;97015.09;;;2.57;75.84
40946;BME280;55635;50.264;11.918;2024-01-30T06:00:14;97013.63;;;2.53;76.45
40946;BME280;55635;50.264;11.918;2024-01-30T06:02:55;97017.72;;;2.70;76.25
40946;BME280;55635;50.264;11.918;2024-01-30T06:05:36;97010.25;;;2.51;76.06
40946;BME280;55635;50.264;11.918;2024-01-30T06:08:18;97005.69;;;2.67;75.63
40946;BME280;55635;50.264;11.918;2024-01-30T06:10:59;97002.56;;;2.75;75.10
40946;BME280;55635;50.264;11.918;2024-01-30T06:13:41;97013.16;;;2.86;75.15
40946;BME280;55635;50.264;11.918;2024-01-30T06:16:23;97021.94;;;2.85;75.36
40946;BME280;55635;50.264;11.918;2024-01-30T06:19:04;97026.22;;;2.73;75.97
40946;BME280;55635;50.264;11.918;2024-01-30T06:21:45;97012.28;;;2.73;75.44
40946;BME280;55635;50.264;11.918;2024-01-30T06:24:26;97016.91;;;2.30;77.29
40946;BME280;55635;50.264;11.918;2024-01-30T06:27:08;97022.84;;;2.59;78.03
40946;BME280;55635;50.264;11.918;2024-01-30T06:29:50;97025.28;;;2.62;77.29
40946;BME280;55635;50.264;11.918;2024-01-30T06:32:31;97033.75;;;2.65;76.13
40946;BME280;55635;50.264;11.918;2024-01-30T06:35:15;97026.53;;;2.56;75.91
40946;BME280;55635;50.264;11.918;2024-01-30T06:37:58;97037.00;;;2.56;76.12
40946;BME280;55635;50.264;11.918;2024-01-30T06:40:39;97019.31;;;2.60;75.83
40946;BME280;55635;50.264;11.918;2024-01-30T06:43:21;97035.00;;;2.60;75.92
40946;BME280;55635;50.264;11.918;2024-01-30T06:46:02;97014.63;;;2.78;75.26
40946;BME280;55635;50.264;11.918;2024-01-30T06:48:44;97031.69;;;2.96;75.48
40946;BME280;55635;50.264;11.918;2024-01-30T06:51:26;97041.22;;;2.97;75.27
40946;BME280;55635;50.264;11.918;2024-01-30T06:54:07;97040.16;;;2.74;75.47
40946;BME280;55635;50.264;11.918;2024-01-30T06:56:48;97039.44;;;2.85;75.14
40946;BME280;55635;50.264;11.918;2024-01-30T06:59:29;97042.47;;;2.91;74.60
40946;BME280;55635;50.264;11.918;2024-01-30T07:02:11;97028.13;;;2.97;74.06
40946;BME280;55635;50.264;11.918;2024-01-30T07:04:52;97033.06;;;2.89;74.52
40946;BME280;55635;50.264;11.918;2024-01-30T07:07:33;97037.88;;;3.07;74.34
40946;BME280;55635;50.264;11.918;2024-01-30T07:10:14;97030.03;;;3.20;73.59
40946;BME280;55635;50.264;11.918;2024-01-30T07:12:55;97028.97;;;3.35;72.62
40946;BME280;55635;50.264;11.918;2024-01-30T07:15:36;97017.63;;;3.47;71.50
40946;BME280;55635;50.264;11.918;2024-01-30T07:18:20;97031.31;;;3.76;71.08
40946;BME280;55635;50.264;11.918;2024-01-30T07:21:01;97035.41;;;3.67;71.00
40946;BME280;55635;50.264;11.918;2024-01-30T07:23:43;97035.91;;;3.85;71.13
40946;BME280;55635;50.264;11.918;2024-01-30T07:26:24;97032.25;;;3.75;72.40
40946;BME280;55635;50.264;11.918;2024-01-30T07:29:05;97027.94;;;4.10;71.00
40946;BME280;55635;50.264;11.918;2024-01-30T07:31:46;97022.94;;;4.31;69.89
40946;BME280;55635;50.264;11.918;2024-01-30T07:34:28;97026.50;;;4.88;68.43
40946;BME280;55635;50.264;11.918;2024-01-30T07:37:08;97004.03;;;4.84;66.72
40946;BME280;55635;50.264;11.918;2024-01-30T07:39:50;97026.66;;;4.74;67.04
40946;BME280;55635;50.264;11.918;2024-01-30T07:42:32;97021.03;;;4.33;68.45
40946;BME280;55635;50.264;11.918;2024-01-30T07:45:13;97022.22;;;4.64;68.38
40946;BME280;55635;50.264;11.918;2024-01-30T07:47:54;97019.63;;;4.75;67.78
40946;BME280;55635;50.264;11.918;2024-01-30T07:50:36;97023.28;;;4.96;67.13
40946;BME280;55635;50.264;11.918;2024-01-30T07:53:17;97023.03;;;4.99;67.48
40946;BME280;55635;50.264;11.918;2024-01-30T07:55:58;97020.94;;;5.26;64.90
40946;BME280;55635;50.264;11.918;2024-01-30T07:58:39;97002.41;;;5.17;64.39
40946;BME280;55635;50.264;11.918;2024-01-30T08:01:20;97011.19;;;4.93;65.44
40946;BME280;55635;50.264;11.918;2024-01-30T08:04:01;97010.97;;;4.85;67.08
40946;BME280;55635;50.264;11.918;2024-01-30T08:06:42;97008.13;;;4.65;67.68
40946;BME280;55635;50.264;11.918;2024-01-30T08:09:23;97004.31;;;5.04;66.42
40946;BME280;55635;50.264;11.918;2024-01-30T08:12:04;97017.44;;;5.15;66.48
40946;BME280;55635;50.264;11.918;2024-01-30T08:14:45;97009.84;;;5.23;65.44
40946;BME280;55635;50.264;11.918;2024-01-30T08:17:26;97029.91;;;5.57;64.57
40946;BME280;55635;50.264;11.918;2024-01-30T08:20:08;97007.66;;;5.39;66.09
40946;BME280;55635;50.264;11.918;2024-01-30T08:22:51;97019.75;;;5.64;64.15
40946;BME280;55635;50.264;11.918;2024-01-30T08:25:33;97031.34;;;5.61;64.09
40946;BME280;55635;50.264;11.918;2024-01-30T08:28:14;97023.59;;;5.71;65.41
40946;BME280;55635;50.264;11.918;2024-01-30T08:30:55;97024.66;;;5.35;65.37
40946;BME280;55635;50.264;11.918;2024-01-30T08:33:36;97016.41;;;5.84;64.83
40946;BME280;55635;50.264;11.918;2024-01-30T08:36:17;97033.75;;;6.40;63.12
40946;BME280;55635;50.264;11.918;2024-01-30T08:38:59;97016.28;;;6.08;63.36
40946;BME280;55635;50.264;11.918;2024-01-30T08:41:40;97020.66;;;6.18;63.52
40946;BME280;55635;50.264;11.918;2024-01-30T08:44:21;97026.13;;;6.69;63.08
40946;BME280;55635;50.264;11.918;2024-01-30T08:47:02;96994.78;;;6.55;62.21
40946;BME280;55635;50.264;11.918;2024-01-30T08:49:44;97018.28;;;6.15;63.91
40946;BME280;55635;50.264;11.918;2024-01-30T08:52:25;97009.72;;;7.07;61.21
40946;BME280;55635;50.264;11.918;2024-01-30T08:55:06;96996.88;;;7.13;60.76
40946;BME280;55635;50.264;11.918;2024-01-30T08:57:47;97007.38;;;7.34;59.97
40946;BME280;55635;50.264;11.918;2024-01-30T09:00:29;96997.72;;;7.44;58.86
40946;BME280;55635;50.264;11.918;2024-01-30T09:03:10;96999.34;;;7.36;59.94
40946;BME280;55635;50.264;11.918;2024-01-30T09:05:51;96986.19;;;6.94;60.45
40946;BME280;55635;50.264;11.918;2024-01-30T09:08:32;96994.50;;;6.69;62.00
40946;BME280;55635;50.264;11.918;2024-01-30T09:11:14;96989.72;;;7.04;60.55
40946;BME280;55635;50.264;11.918;2024-01-30T09:13:55;96995.91;;;7.15;60.38
40946;BME280;55635;50.264;11.918;2024-01-30T09:16:37;97006.50;;;7.03;63.12
40946;BME280;55635;50.264;11.918;2024-01-30T09:19:18;96993.06;;;7.57;60.98
40946;BME280;55635;50.264;11.918;2024-01-30T09:21:59;96997.53;;;8.06;58.85
40946;BME280;55635;50.264;11.918;2024-01-30T09:24:41;96987.72;;;8.28;58.82
40946;BME280;55635;50.264;11.918;2024-01-30T09:27:22;96980.97;;;8.04;57.66
40946;BME280;55635;50.264;11.918;2024-01-30T09:30:03;96979.06;;;8.26;58.15
40946;BME280;55635;50.264;11.918;2024-01-30T09:32:44;96980.78;;;8.46;58.11
40946;BME280;55635;50.264;11.918;2024-01-30T09:35:25;96973.69;;;8.37;57.78
40946;BME280;55635;50.264;11.918;2024-01-30T09:38:06;96970.84;;;8.09;58.89
40946;BME280;55635;50.264;11.918;2024-01-30T09:40:53;96970.94;;;7.98;59.40
40946;BME280;55635;50.264;11.918;2024-01-30T09:43:35;96965.88;;;7.66;58.93
40946;BME280;55635;50.264;11.918;2024-01-30T09:46:18;96940.94;;;7.50;59.75
40946;BME280;55635;50.264;11.918;2024-01-30T09:49:02;96970.16;;;7.58;60.30
40946;BME280;55635;50.264;11.918;2024-01-30T09:51:45;96967.81;;;7.34;60.53
40946;BME280;55635;50.264;11.918;2024-01-30T09:54:29;96965.94;;;7.55;60.91
40946;BME280;55635;50.264;11.918;2024-01-30T09:57:11;96966.50;;;7.49;60.69
40946;BME280;55635;50.264;11.918;2024-01-30T09:59:53;96965.91;;;7.76;60.81
40946;BME280;55635;50.264;11.918;2024-01-30T10:02:35;96962.81;;;7.31;61.54
40946;BME280;55635;50.264;11.918;2024-01-30T10:05:19;96959.44;;;7.59;60.87
40946;BME280;55635;50.264;11.918;2024-01-30T10:08:00;96965.31;;;7.63;61.06
40946;BME280;55635;50.264;11.918;2024-01-30T10:10:41;96948.06;;;7.29;62.55
40946;BME280;55635;50.264;11.918;2024-01-30T10:13:22;96962.16;;;7.39;62.38
40946;BME280;55635;50.264;11.918;2024-01-30T10:16:03;96960.25;;;7.50;61.48
40946;BME280;55635;50.264;11.918;2024-01-30T10:18:47;96958.38;;;7.32;62.52
40946;BME280;55635;50.264;11.918;2024-01-30T10:21:29;96962.81;;;7.71;62.60
40946;BME280;55635;50.264;11.918;2024-01-30T10:24:10;96964.72;;;7.59;60.90
40946;BME280;55635;50.264;11.918;2024-01-30T10:26:54;96952.50;;;7.58;61.41
40946;BME280;55635;50.264;11.918;2024-01-30T10:29:37;96955.47;;;7.75;60.61
40946;BME280;55635;50.264;11.918;2024-01-30T10:32:19;96960.28;;;7.60;60.53
40946;BME280;55635;50.264;11.918;2024-01-30T10:35:00;96948.41;;;7.85;59.42
40946;BME280;55635;50.264;11.918;2024-01-30T10:37:44;96931.34;;;8.08;59.99
40946;BME280;55635;50.264;11.918;2024-01-30T10:40:28;96938.47;;;8.27;58.89
40946;BME280;55635;50.264;11.918;2024-01-30T10:43:11;96929.69;;;8.16;59.35
40946;BME280;55635;50.264;11.918;2024-01-30T10:45:58;96940.66;;;8.02;59.97
40946;BME280;55635;50.264;11.918;2024-01-30T10:48:43;96922.03;;;7.94;60.05
40946;BME280;55635;50.264;11.918;2024-01-30T10:51:29;96925.06;;;7.90;60.17
40946;BME280;55635;50.264;11.918;2024-01-30T10:54:12;96928.72;;;8.27;60.63
40946;BME280;55635;50.264;11.918;2024-01-30T10:56:53;96913.69;;;7.99;60.61
40946;BME280;55635;50.264;11.918;2024-01-30T10:59:34;96928.84;;;7.97;60.50
40946;BME280;55635;50.264;11.918;2024-01-30T11:02:16;96918.47;;;8.34;59.47
40946;BME280;55635;50.264;11.918;2024-01-30T11:04:58;96912.59;;;8.20;59.94
40946;BME280;55635;50.264;11.918;2024-01-30T11:07:40;96920.69;;;8.38;59.48
40946;BME280;55635;50.264;11.918;2024-01-30T11:10:25;96918.03;;;8.48;60.00
40946;BME280;55635;50.264;11.918;2024-01-30T11:13:14;96921.22;;;8.90;59.17
40946;BME280;55635;50.264;11.918;2024-01-30T11:15:55;96914.13;;;9.17;58.40
40946;BME280;55635;50.264;11.918;2024-01-30T11:18:36;96925.47;;;9.47;59.05
40946;BME280;55635;50.264;11.918;2024-01-30T11:21:18;96917.00;;;9.34;58.95
40946;BME280;55635;50.264;11.918;2024-01-30T11:23:59;96917.94;;;9.05;59.36
40946;BME280;55635;50.264;11.918;2024-01-30T11:26:43;96922.31;;;8.77;59.86
40946;BME280;55635;50.264;11.918;2024-01-30T11:29:25;96917.47;;;8.73;60.51
40946;BME280;55635;50.264;11.918;2024-01-30T11:32:08;96916.44;;;8.93;60.85
40946;BME280;55635;50.264;11.918;2024-01-30T11:34:49;96901.06;;;8.60;62.06
40946;BME280;55635;50.264;11.918;2024-01-30T11:37:31;96917.91;;;8.59;61.59
40946;BME280;55635;50.264;11.918;2024-01-30T11:40:13;96910.06;;;8.86;62.20
40946;BME280;55635;50.264;11.918;2024-01-30T11:42:55;96912.41;;;8.99;62.52
40946;BME280;55635;50.264;11.918;2024-01-30T11:45:37;96907.16;;;8.89;61.81
40946;BME280;55635;50.264;11.918;2024-01-30T11:48:18;96907.50;;;9.04;61.30
40946;BME280;55635;50.264;11.918;2024-01-30T11:50:59;96905.56;;;9.06;61.13
40946;BME280;55635;50.264;11.918;2024-01-30T11:53:41;96910.19;;;8.94;62.27
40946;BME280;55635;50.264;11.918;2024-01-30T11:56:24;96903.44;;;9.09;61.47
40946;BME280;55635;50.264;11.918;2024-01-30T11:59:06;96906.72;;;8.84;63.09
40946;BME280;55635;50.264;11.918;2024-01-30T12:01:47;96900.34;;;8.77;62.90
40946;BME280;55635;50.264;11.918;2024-01-30T12:04:29;96895.22;;;9.12;62.74
40946;BME280;55635;50.264;11.918;2024-01-30T12:07:11;96884.56;;;9.32;62.06
40946;BME280;55635;50.264;11.918;2024-01-30T12:09:53;96877.38;;;9.14;63.14
40946;BME280;55635;50.264;11.918;2024-01-30T12:12:37;96886.38;;;9.31;60.92
40946;BME280;55635;50.264;11.918;2024-01-30T12:15:21;96894.13;;;9.05;62.69
40946;BME280;55635;50.264;11.918;2024-01-30T12:18:06;96894.66;;;9.18;62.85
40946;BME280;55635;50.264;11.918;2024-01-30T12:21:00;96878.66;;;8.73;64.51
40946;BME280;55635;50.264;11.918;2024-01-30T12:23:41;96874.44;;;9.17;62.95
40946;BME280;55635;50.264;11.918;2024-01-30T12:26:23;96886.31;;;9.50;62.93
40946;BME280;55635;50.264;11.918;2024-01-30T12:29:04;96872.88;;;9.79;62.12
40946;BME280;55635;50.264;11.918;2024-01-30T12:31:45;96884.50;;;9.96;61.36
40946;BME280;55635;50.264;11.918;2024-01-30T12:34:27;96884.06;;;9.46;62.88
40946;BME280;55635;50.264;11.918;2024-01-30T12:37:08;96882.81;;;9.22;63.31
40946;BME280;55635;50.264;11.918;2024-01-30T12:39:52;96878.66;;;9.20;63.55
40946;BME280;55635;50.264;11.918;2024-01-30T12:42:34;96874.91;;;9.40;62.96
40946;BME280;55635;50.264;11.918;2024-01-30T12:45:16;96835.63;;;9.08;63.44
40946;BME280;55635;50.264;11.918;2024-01-30T12:47:57;96860.75;;;9.04;64.24
40946;BME280;55635;50.264;11.918;2024-01-30T12:50:38;96864.03;;;9.16;64.56
40946;BME280;55635;50.264;11.918;2024-01-30T12:53:19;96862.47;;;9.23;63.78
40946;BME280;55635;50.264;11.918;2024-01-30T12:56:00;96862.81;;;9.38;64.14
40946;BME280;55635;50.264;11.918;2024-01-30T12:58:41;96817.47;;;9.50;63.17
40946;BME280;55635;50.264;11.918;2024-01-30T13:01:24;96856.44;;;9.75;63.70
40946;BME280;55635;50.264;11.918;2024-01-30T13:04:05;96843.31;;;9.39;64.13
40946;BME280;55635;50.264;11.918;2024-01-30T13:06:46;96862.19;;;9.53;63.60
40946;BME280;55635;50.264;11.918;2024-01-30T13:09:29;96850.28;;;9.57;63.38
40946;BME280;55635;50.264;11.918;2024-01-30T13:12:10;96850.66;;;9.45;64.42
40946;BME280;55635;50.264;11.918;2024-01-30T13:14:51;96853.00;;;9.20;65.51
40946;BME280;55635;50.264;11.918;2024-01-30T13:17:32;96843.25;;;9.21;64.99
40946;BME280;55635;50.264;11.918;2024-01-30T13:20:14;96854.97;;;9.46;64.38
40946;BME280;55635;50.264;11.918;2024-01-30T13:23:00;96855.00;;;9.63;64.45
40946;BME280;55635;50.264;11.918;2024-01-30T13:25:41;96849.25;;;9.68;63.53
40946;BME280;55635;50.264;11.918;2024-01-30T13:28:22;96867.09;;;9.93;63.45
40946;BME280;55635;50.264;11.918;2024-01-30T13:31:03;96872.00;;;10.06;62.46
40946;BME280;55635;50.264;11.918;2024-01-30T13:33:46;96870.88;;;10.08;62.50
40946;BME280;55635;50.264;11.918;2024-01-30T13:36:27;96873.34;;;10.10;62.45
40946;BME280;55635;50.264;11.918;2024-01-30T13:39:08;96851.78;;;10.05;62.25
40946;BME280;55635;50.264;11.918;2024-01-30T13:41:51;96863.91;;;10.25;62.47
40946;BME280;55635;50.264;11.918;2024-01-30T13:44:32;96860.56;;;10.41;61.20
40946;BME280;55635;50.264;11.918;2024-01-30T13:47:13;96856.63;;;9.92;62.21
40946;BME280;55635;50.264;11.918;2024-01-30T13:49:54;96843.47;;;10.00;63.07
40946;BME280;55635;50.264;11.918;2024-01-30T13:52:35;96849.13;;;10.05;63.13
40946;BME280;55635;50.264;11.918;2024-01-30T13:55:16;96854.75;;;9.84;62.45
40946;BME280;55635;50.264;11.918;2024-01-30T13:57:57;96864.16;;;10.31;62.18
40946;BME280;55635;50.264;11.918;2024-01-30T14:00:39;96865.03;;;10.58;61.31
40946;BME280;55635;50.264;11.918;2024-01-30T14:03:20;96851.00;;;10.65;60.13
40946;BME280;55635;50.264;11.918;2024-01-30T14:06:02;96868.31;;;10.52;60.90
40946;BME280;55635;50.264;11.918;2024-01-30T14:08:42;96867.66;;;10.14;62.11
40946;BME280;55635;50.264;11.918;2024-01-30T14:11:23;96869.50;;;9.87;62.25
40946;BME280;55635;50.264;11.918;2024-01-30T14:14:04;96861.97;;;9.82;62.68
40946;BME280;55635;50.264;11.918;2024-01-30T14:16:45;96870.31;;;10.14;61.85